createdAt,value
2019-06-26T00:01:33.285Z,69.80
2019-06-26T00:04:01.996Z,70.00
2019-06-26T00:06:30.680Z,70.10
2019-06-26T00:08:59.429Z,70.20
2019-06-26T00:11:28.136Z,70.30
2019-06-26T00:13:56.781Z,70.30
2019-06-26T00:16:25.522Z,70.50
2019-06-26T00:18:54.203Z,70.60
2019-06-26T00:21:22.932Z,70.90
2019-06-26T00:23:51.665Z,70.70
2019-06-26T00:26:20.349Z,71.00
2019-06-26T00:28:49.072Z,70.90
2019-06-26T00:31:17.756Z,71.00
2019-06-26T00:33:46.504Z,71.10
2019-06-26T00:36:15.182Z,71.20
2019-06-26T00:38:43.853Z,71.60
2019-06-26T00:41:12.602Z,71.70
2019-06-26T00:43:42.682Z,71.80
2019-06-26T00:46:11.659Z,71.90
2019-06-26T00:48:40.387Z,72.00
2019-06-26T00:51:09.071Z,71.90
2019-06-26T00:53:37.812Z,71.90
2019-06-26T00:56:06.494Z,72.00
2019-06-26T00:58:35.172Z,72.00
2019-06-26T01:01:03.897Z,72.20
2019-06-26T01:03:32.576Z,72.20
2019-06-26T01:06:01.341Z,72.30
2019-06-26T01:08:30.032Z,72.30
2019-06-26T01:10:58.713Z,72.50
2019-06-26T01:13:27.454Z,71.80
2019-06-26T01:15:56.122Z,72.30
2019-06-26T01:18:24.876Z,72.60
2019-06-26T01:20:53.562Z,72.70
2019-06-26T01:23:22.237Z,72.10
2019-06-26T01:25:50.993Z,72.90
2019-06-26T01:28:19.674Z,73.00
2019-06-26T01:30:48.355Z,73.00
2019-06-26T01:33:17.068Z,73.10
2019-06-26T01:35:45.758Z,73.30
2019-06-26T01:38:14.612Z,73.50
2019-06-26T01:40:43.297Z,73.60
2019-06-26T01:43:11.986Z,73.60
2019-06-26T01:45:40.712Z,73.80
2019-06-26T01:48:09.394Z,73.90
2019-06-26T01:50:38.138Z,74.00
2019-06-26T01:53:06.814Z,73.80
2019-06-26T01:55:35.493Z,74.10
2019-06-26T01:58:04.230Z,74.30
2019-06-26T02:00:32.920Z,74.50
2019-06-26T02:03:01.756Z,74.60
2019-06-26T02:05:30.706Z,74.70
2019-06-26T02:07:59.435Z,74.90
2019-06-26T02:10:28.183Z,74.80
2019-06-26T02:12:56.889Z,74.90
2019-06-26T02:15:25.581Z,74.90
2019-06-26T02:17:54.293Z,75.00
2019-06-26T02:20:22.978Z,75.10
2019-06-26T02:22:51.728Z,75.00
2019-06-26T02:25:20.397Z,75.00
2019-06-26T02:27:49.071Z,75.80
2019-06-26T02:30:17.787Z,74.70
2019-06-26T02:32:46.469Z,75.00
2019-06-26T02:35:15.236Z,75.10
2019-06-26T02:37:43.922Z,75.00
2019-06-26T02:40:12.609Z,75.10
2019-06-26T02:42:41.345Z,75.20
2019-06-26T02:45:10.002Z,75.20
2019-06-26T02:47:38.763Z,75.20
2019-06-26T02:50:10.903Z,75.30
2019-06-26T02:52:39.634Z,75.10
2019-06-26T02:55:08.441Z,75.10
2019-06-26T02:57:37.122Z,75.10
2019-06-26T03:00:06.292Z,75.00
2019-06-26T03:02:35.004Z,74.80
2019-06-26T03:05:04.586Z,75.00
2019-06-26T03:07:33.335Z,75.00
2019-06-26T03:10:02.018Z,75.00
2019-06-26T03:12:30.700Z,74.90
2019-06-26T03:15:09.000Z,74.90
2019-06-26T03:17:29.728Z,75.10
2019-06-26T03:19:58.476Z,75.40
2019-06-26T03:22:27.160Z,75.60
2019-06-26T03:24:55.836Z,75.60
2019-06-26T03:27:24.587Z,75.80
2019-06-26T03:29:53.265Z,75.70
2019-06-26T03:32:21.949Z,76.20
2019-06-26T03:34:50.669Z,76.10
2019-06-26T03:37:19.348Z,76.10
2019-06-26T03:39:48.097Z,76.30
2019-06-26T03:42:16.781Z,76.10
2019-06-26T03:44:45.460Z,76.40
2019-06-26T03:47:14.179Z,76.40
2019-06-26T03:49:42.857Z,76.40
2019-06-26T03:52:11.627Z,76.20
2019-06-26T03:54:40.315Z,76.20
2019-06-26T03:57:09.003Z,76.10
2019-06-26T03:59:37.713Z,76.20
2019-06-26T04:02:06.388Z,76.10
2019-06-26T04:04:35.135Z,76.30
2019-06-26T04:07:03.817Z,76.10
2019-06-26T04:09:32.499Z,76.20
2019-06-26T04:12:01.468Z,76.30
2019-06-26T04:14:30.166Z,76.40
2019-06-26T04:16:58.823Z,76.50
2019-06-26T04:19:27.541Z,76.40
2019-06-26T04:21:56.220Z,76.30
2019-06-26T04:24:24.982Z,76.40
2019-06-26T04:26:53.653Z,76.50
2019-06-26T04:29:22.330Z,76.60
2019-06-26T04:31:51.046Z,76.70
2019-06-26T04:34:19.720Z,76.90
2019-06-26T04:36:48.469Z,76.80
2019-06-26T04:39:17.149Z,76.30
2019-06-26T04:41:45.852Z,76.00
2019-06-26T04:44:14.544Z,75.80
2019-06-26T04:46:43.232Z,76.00
2019-06-26T04:49:12.012Z,76.10
2019-06-26T04:51:40.725Z,76.10
2019-06-26T04:54:09.404Z,76.40
2019-06-26T04:56:38.151Z,76.20
2019-06-26T04:59:06.829Z,76.20
2019-06-26T05:01:35.512Z,76.30
2019-06-26T05:04:04.229Z,76.30
2019-06-26T05:06:32.896Z,76.50
2019-06-26T05:09:01.749Z,76.30
2019-06-26T05:11:30.424Z,76.20
2019-06-26T05:13:59.097Z,76.50
2019-06-26T05:16:27.934Z,76.80
2019-06-26T05:18:56.585Z,77.00
2019-06-26T05:21:25.330Z,76.10
2019-06-26T05:23:54.009Z,75.80
2019-06-26T05:26:22.685Z,75.50
2019-06-26T05:28:51.393Z,75.80
2019-06-26T05:31:20.091Z,75.60
2019-06-26T05:33:48.828Z,75.70
2019-06-26T05:36:17.501Z,75.60
2019-06-26T05:38:46.197Z,75.30
2019-06-26T05:41:14.937Z,76.10
2019-06-26T05:43:43.615Z,75.60
2019-06-26T05:46:12.288Z,75.40
2019-06-26T05:48:40.997Z,75.70
2019-06-26T05:51:09.685Z,75.70
2019-06-26T05:53:38.416Z,75.40
2019-06-26T05:56:07.105Z,75.30
2019-06-26T05:58:35.789Z,75.40
2019-06-26T06:01:04.493Z,75.20
2019-06-26T06:03:33.168Z,74.90
2019-06-26T06:06:01.942Z,74.80
2019-06-26T06:08:30.704Z,74.70
2019-06-26T06:10:59.422Z,74.80
2019-06-26T06:13:28.160Z,74.30
2019-06-26T06:15:57.928Z,75.00
2019-06-26T06:18:26.634Z,75.60
2019-06-26T06:20:55.350Z,75.10
2019-06-26T06:23:24.022Z,75.10
2019-06-26T06:25:52.813Z,74.10
2019-06-26T06:28:21.496Z,74.10
2019-06-26T06:30:50.268Z,74.60
2019-06-26T06:33:18.980Z,74.30
2019-06-26T06:35:47.656Z,73.00
2019-06-26T06:38:16.412Z,70.60
2019-06-26T06:40:45.090Z,73.10
2019-06-26T06:43:14.460Z,72.10
2019-06-26T06:45:43.271Z,72.70
2019-06-26T06:48:11.964Z,73.10
2019-06-26T06:50:40.705Z,72.60
2019-06-26T06:53:09.375Z,72.80
2019-06-26T06:55:38.056Z,72.80
2019-06-26T06:58:06.817Z,71.80
2019-06-26T07:00:35.492Z,71.90
2019-06-26T07:03:04.173Z,72.10
2019-06-26T07:05:32.895Z,72.40
2019-06-26T07:08:01.568Z,71.40
2019-06-26T07:10:30.314Z,71.20
2019-06-26T07:12:58.986Z,70.70
2019-06-26T07:15:27.662Z,71.00
2019-06-26T07:17:56.377Z,71.20
2019-06-26T07:20:25.043Z,71.80
2019-06-26T07:22:53.785Z,71.50
2019-06-26T07:25:22.473Z,71.20
2019-06-26T07:27:51.154Z,69.80
2019-06-26T07:30:19.867Z,68.60
2019-06-26T07:32:48.539Z,68.40
2019-06-26T07:35:17.311Z,68.50
2019-06-26T07:37:45.989Z,68.30
2019-06-26T07:40:14.659Z,68.20
2019-06-26T07:42:43.400Z,67.20
2019-06-26T07:45:12.087Z,66.90
2019-06-26T07:47:43.767Z,67.50
2019-06-26T07:50:11.423Z,67.90
2019-06-26T07:52:40.097Z,67.80
2019-06-26T07:55:11.955Z,67.20
2019-06-26T07:57:39.173Z,67.30
2019-06-26T08:00:07.985Z,65.00
2019-06-26T08:02:36.756Z,65.00
2019-06-26T08:05:08.241Z,65.70
2019-06-26T08:07:37.122Z,63.90
2019-06-26T08:10:07.767Z,63.50
2019-06-26T08:12:36.445Z,63.00
2019-06-26T08:15:06.762Z,63.60
2019-06-26T08:17:35.441Z,63.00
2019-06-26T08:20:04.378Z,63.30
2019-06-26T08:22:33.049Z,64.00
2019-06-26T08:25:01.736Z,63.90
2019-06-26T08:27:30.472Z,65.20
2019-06-26T08:29:59.150Z,65.40
2019-06-26T08:32:27.827Z,64.70
2019-06-26T08:34:56.541Z,63.90
2019-06-26T08:37:25.270Z,63.40
2019-06-26T08:39:54.064Z,63.30
2019-06-26T08:42:22.752Z,63.60
2019-06-26T08:44:51.430Z,63.60
2019-06-26T08:47:20.158Z,62.10
2019-06-26T08:49:48.812Z,61.10
2019-06-26T08:52:17.566Z,59.40
2019-06-26T08:54:46.267Z,58.70
2019-06-26T08:57:14.944Z,58.20
2019-06-26T08:59:43.659Z,58.30
2019-06-26T09:02:12.331Z,57.70
2019-06-26T09:04:41.072Z,55.80
2019-06-26T09:07:09.749Z,56.50
2019-06-26T09:09:38.446Z,55.60
2019-06-26T09:12:07.177Z,55.40
2019-06-26T09:14:35.839Z,55.20
2019-06-26T09:17:04.520Z,55.00
2019-06-26T09:19:33.236Z,56.10
2019-06-26T09:22:01.917Z,55.80
2019-06-26T09:24:30.687Z,58.00
2019-06-26T09:26:59.426Z,57.60
2019-06-26T09:29:28.136Z,59.50
2019-06-26T09:31:56.856Z,58.30
2019-06-26T09:34:25.516Z,57.30
2019-06-26T09:36:54.268Z,56.90
2019-06-26T09:39:22.949Z,59.20
2019-06-26T09:41:51.622Z,58.60
2019-06-26T09:44:20.364Z,57.80
2019-06-26T09:46:49.151Z,57.40
2019-06-26T09:49:17.825Z,54.60
2019-06-26T09:51:46.526Z,53.80
2019-06-26T09:54:15.202Z,55.10
2019-06-26T09:56:43.980Z,52.00
2019-06-26T09:59:12.648Z,51.50
2019-06-26T10:01:41.339Z,51.60
2019-06-26T10:04:10.033Z,49.70
2019-06-26T10:06:38.717Z,49.10
2019-06-26T10:09:08.375Z,49.80
2019-06-26T10:11:37.028Z,49.80
2019-06-26T10:14:05.707Z,49.80
2019-06-26T10:16:34.416Z,50.20
2019-06-26T10:19:10.171Z,47.50
2019-06-26T10:21:33.560Z,47.70
2019-06-26T10:24:02.360Z,47.80
2019-06-26T10:26:32.579Z,49.10
2019-06-26T10:29:01.587Z,49.60
2019-06-26T10:31:30.289Z,47.80
2019-06-26T10:33:59.045Z,48.20
2019-06-26T10:36:27.749Z,48.60
2019-06-26T10:38:56.421Z,46.90
2019-06-26T10:41:25.161Z,47.60
2019-06-26T10:43:53.846Z,48.00
2019-06-26T10:46:22.525Z,45.40
2019-06-26T10:48:51.245Z,47.30
2019-06-26T10:51:19.919Z,48.30
2019-06-26T10:53:48.685Z,49.10
2019-06-26T10:56:17.359Z,50.20
2019-06-26T10:58:46.040Z,47.90
2019-06-26T11:01:14.769Z,48.50
2019-06-26T11:03:43.435Z,48.90
2019-06-26T11:06:12.213Z,50.10
2019-06-26T11:08:40.842Z,48.10
2019-06-26T11:11:09.521Z,45.30
2019-06-26T11:13:38.269Z,44.50
2019-06-26T11:16:06.944Z,45.10
2019-06-26T11:18:35.613Z,45.50
2019-06-26T11:21:04.328Z,46.00
2019-06-26T11:23:33.003Z,46.10
2019-06-26T11:26:01.745Z,46.40
2019-06-26T11:28:30.440Z,44.30
2019-06-26T11:30:59.115Z,45.10
2019-06-26T11:33:27.811Z,44.80
2019-06-26T11:35:56.474Z,45.50
2019-06-26T11:38:25.210Z,45.60
2019-06-26T11:40:53.894Z,44.80
2019-06-26T11:43:22.570Z,44.80
2019-06-26T11:45:51.389Z,45.70
2019-06-26T11:48:20.059Z,45.70
2019-06-26T11:50:48.785Z,46.00
2019-06-26T11:53:17.459Z,46.20
2019-06-26T11:55:46.144Z,47.50
2019-06-26T11:58:14.894Z,47.90
2019-06-26T12:00:43.581Z,46.90
2019-06-26T12:03:13.302Z,46.70
2019-06-26T12:05:42.265Z,46.00
2019-06-26T12:08:10.935Z,45.60
2019-06-26T12:10:39.670Z,45.20
2019-06-26T12:13:08.345Z,46.10
2019-06-26T12:15:37.035Z,46.60
2019-06-26T12:18:05.740Z,44.90
2019-06-26T12:20:34.417Z,45.60
2019-06-26T12:23:03.153Z,44.90
2019-06-26T12:25:31.834Z,45.30
2019-06-26T12:28:00.498Z,44.10
2019-06-26T12:30:29.208Z,44.10
2019-06-26T12:33:03.295Z,44.40
2019-06-26T12:35:28.279Z,45.30
2019-06-26T12:37:56.945Z,43.80
2019-06-26T12:40:25.629Z,45.00
2019-06-26T12:42:55.639Z,44.50
2019-06-26T12:45:24.650Z,45.10
2019-06-26T12:47:53.310Z,43.00
2019-06-26T12:50:34.789Z,43.70
2019-06-26T12:52:53.246Z,42.30
2019-06-26T12:55:22.020Z,43.20
2019-06-26T12:57:50.682Z,43.10
2019-06-26T13:00:19.385Z,42.80
2019-06-26T13:02:48.065Z,42.40
2019-06-26T13:05:16.762Z,39.60
2019-06-26T13:07:45.535Z,38.90
2019-06-26T13:10:14.244Z,38.70
2019-06-26T13:12:45.779Z,37.20
2019-06-26T13:15:15.009Z,38.10
2019-06-26T13:17:43.707Z,38.70
2019-06-26T13:20:13.689Z,38.70
2019-06-26T13:22:42.367Z,40.00
2019-06-26T13:25:11.048Z,40.70
2019-06-26T13:27:39.784Z,40.50
2019-06-26T13:30:08.773Z,37.10
2019-06-26T13:32:37.435Z,37.50
2019-06-26T13:35:07.638Z,38.40
2019-06-26T13:37:36.310Z,38.50
2019-06-26T13:40:06.260Z,38.90
2019-06-26T13:42:34.933Z,39.10
2019-06-26T13:45:05.198Z,39.30
2019-06-26T13:47:33.927Z,40.40
2019-06-26T13:50:03.309Z,41.40
2019-06-26T13:52:32.042Z,40.40
2019-06-26T13:55:00.714Z,40.30
2019-06-26T13:57:29.384Z,38.90
2019-06-26T13:59:58.144Z,39.00
2019-06-26T14:02:26.823Z,40.70
2019-06-26T14:04:55.489Z,39.40
2019-06-26T14:07:24.206Z,39.60
2019-06-26T14:09:52.890Z,38.40
2019-06-26T14:12:21.629Z,39.20
2019-06-26T14:14:57.432Z,39.80
2019-06-26T14:17:20.664Z,39.50
2019-06-26T14:19:49.352Z,39.40
2019-06-26T14:22:18.045Z,39.70
2019-06-26T14:24:46.781Z,40.20
2019-06-26T14:27:15.447Z,38.30
2019-06-26T14:29:44.121Z,37.40
2019-06-26T14:32:12.865Z,37.60
2019-06-26T14:34:41.535Z,37.20
2019-06-26T14:37:10.207Z,36.10
2019-06-26T14:39:40.931Z,36.30
2019-06-26T14:42:09.243Z,37.80
2019-06-26T14:44:38.010Z,38.70
2019-06-26T14:47:06.688Z,37.50
2019-06-26T14:49:35.370Z,39.00
2019-06-26T14:52:04.084Z,37.50
2019-06-26T14:54:32.747Z,37.40
2019-06-26T14:57:01.485Z,37.70
2019-06-26T14:59:30.160Z,38.30
2019-06-26T15:01:58.849Z,37.90
2019-06-26T15:04:27.567Z,38.50
2019-06-26T15:06:56.247Z,38.40
2019-06-26T15:09:25.003Z,38.10
2019-06-26T15:11:53.671Z,38.30
2019-06-26T15:14:22.351Z,39.20
2019-06-26T15:16:51.123Z,38.60
2019-06-26T15:19:19.808Z,38.30
2019-06-26T15:21:57.823Z,38.50
2019-06-26T15:24:18.849Z,38.10
2019-06-26T15:26:47.528Z,39.30
2019-06-26T15:29:16.272Z,38.60
2019-06-26T15:32:03.238Z,38.30
2019-06-26T15:34:31.977Z,38.70
2019-06-26T15:37:00.745Z,38.70
2019-06-26T15:39:29.433Z,38.90
2019-06-26T15:41:58.182Z,39.10
2019-06-26T15:44:26.856Z,38.90
2019-06-26T15:46:55.532Z,39.30
2019-06-26T15:49:24.334Z,38.50
2019-06-26T15:51:53.062Z,38.50
2019-06-26T15:54:21.746Z,38.50
2019-06-26T15:56:50.458Z,38.50
2019-06-26T15:59:19.150Z,37.90
2019-06-26T16:01:47.897Z,37.70
2019-06-26T16:04:16.578Z,38.10
2019-06-26T16:06:45.244Z,37.20
2019-06-26T16:09:13.973Z,37.20
2019-06-26T16:11:42.645Z,37.60
2019-06-26T16:14:11.411Z,36.90
2019-06-26T16:16:41.656Z,36.90
2019-06-26T16:19:17.889Z,37.10
2019-06-26T16:21:46.564Z,37.60
2019-06-26T16:24:15.252Z,37.70
2019-06-26T16:26:43.995Z,38.20
2019-06-26T16:29:12.672Z,38.50
2019-06-26T16:31:41.365Z,38.70
2019-06-26T16:34:10.108Z,39.20
2019-06-26T16:36:38.731Z,38.70
2019-06-26T16:39:08.984Z,39.40
2019-06-26T16:41:37.690Z,39.10
2019-06-26T16:44:06.872Z,38.80
2019-06-26T16:46:35.637Z,39.10
2019-06-26T16:49:04.314Z,39.00
2019-06-26T16:51:32.995Z,39.00
2019-06-26T16:54:01.720Z,38.60
2019-06-26T16:56:30.390Z,38.70
2019-06-26T16:58:59.528Z,38.80
2019-06-26T17:01:28.162Z,39.00
2019-06-26T17:03:56.888Z,38.60
2019-06-26T17:06:26.508Z,38.80
2019-06-26T17:08:55.199Z,39.00
2019-06-26T17:11:23.883Z,39.50
2019-06-26T17:13:52.601Z,39.60
2019-06-26T17:16:21.288Z,40.00
2019-06-26T17:18:50.049Z,39.70
2019-06-26T17:21:18.728Z,39.70
2019-06-26T17:23:47.412Z,39.80
2019-06-26T17:26:16.132Z,39.80
2019-06-26T17:28:44.819Z,40.30
2019-06-26T17:31:13.563Z,40.40
2019-06-26T17:33:42.250Z,40.70
2019-06-26T17:36:10.931Z,41.10
2019-06-26T17:38:39.638Z,41.40
2019-06-26T17:41:08.313Z,41.10
2019-06-26T17:43:37.077Z,41.30
2019-06-26T17:46:05.859Z,41.50
2019-06-26T17:48:34.527Z,41.40
2019-06-26T17:51:03.313Z,41.50
2019-06-26T17:53:32.056Z,41.70
2019-06-26T17:56:00.746Z,41.00
2019-06-26T17:58:29.474Z,42.50
2019-06-26T18:00:58.168Z,42.70
2019-06-26T18:03:26.943Z,42.30
2019-06-26T18:05:55.631Z,41.90
2019-06-26T18:08:24.321Z,42.60
2019-06-26T18:10:53.036Z,42.10
2019-06-26T18:13:21.748Z,43.30
2019-06-26T18:15:50.485Z,43.50
2019-06-26T18:18:19.198Z,43.30
2019-06-26T18:20:47.857Z,43.70
2019-06-26T18:23:16.577Z,43.80
2019-06-26T18:25:53.770Z,43.80
2019-06-26T18:28:15.669Z,44.30
2019-06-26T18:30:44.374Z,44.20
2019-06-26T18:33:13.045Z,42.80
2019-06-26T18:35:41.845Z,44.00
2019-06-26T18:38:10.544Z,45.60
2019-06-26T18:40:39.223Z,46.80
2019-06-26T18:43:07.950Z,46.70
2019-06-26T18:45:36.654Z,46.60
2019-06-26T18:48:05.407Z,47.10
2019-06-26T18:50:34.081Z,47.30
2019-06-26T18:53:02.754Z,47.40
2019-06-26T18:55:31.478Z,47.30
2019-06-26T18:58:00.154Z,47.40
2019-06-26T19:00:28.917Z,47.50
2019-06-26T19:02:57.695Z,48.10
2019-06-26T19:05:26.374Z,48.00
2019-06-26T19:07:55.086Z,48.40
2019-06-26T19:10:23.769Z,48.20
2019-06-26T19:12:52.514Z,48.30
2019-06-26T19:15:21.197Z,48.60
2019-06-26T19:17:49.907Z,48.60
2019-06-26T19:20:18.884Z,48.10
2019-06-26T19:22:47.785Z,48.50
2019-06-26T19:25:16.578Z,48.60
2019-06-26T19:27:45.307Z,48.90
2019-06-26T19:30:13.988Z,48.70
2019-06-26T19:32:42.772Z,48.80
2019-06-26T19:35:19.443Z,48.70
2019-06-26T19:37:41.800Z,49.20
2019-06-26T19:40:10.509Z,49.00
2019-06-26T19:42:39.197Z,49.20
2019-06-26T19:45:08.445Z,49.20
2019-06-26T19:47:37.138Z,49.40
2019-06-26T19:50:07.528Z,49.30
2019-06-26T19:52:36.516Z,49.60
2019-06-26T19:55:08.397Z,49.60
2019-06-26T19:57:37.820Z,49.70
2019-06-26T20:00:08.572Z,49.70
2019-06-26T20:02:37.252Z,50.20
2019-06-26T20:05:08.716Z,50.20
2019-06-26T20:07:37.398Z,50.20
2019-06-26T20:10:06.274Z,50.10
2019-06-26T20:12:35.194Z,50.30
2019-06-26T20:15:05.479Z,50.20
2019-06-26T20:17:34.244Z,50.20
2019-06-26T20:20:03.809Z,50.30
2019-06-26T20:22:32.530Z,50.90
2019-06-26T20:25:01.247Z,51.20
2019-06-26T20:27:29.912Z,51.10
2019-06-26T20:29:58.651Z,51.00
2019-06-26T20:32:27.338Z,51.20
2019-06-26T20:34:56.031Z,51.30
2019-06-26T20:37:24.781Z,51.50
2019-06-26T20:39:53.451Z,51.80
2019-06-26T20:42:22.149Z,52.00
2019-06-26T20:44:50.854Z,51.60
2019-06-26T20:47:19.537Z,51.70
2019-06-26T20:49:53.118Z,51.80
2019-06-26T20:52:18.612Z,51.50
2019-06-26T20:55:00.571Z,52.30
2019-06-26T20:57:17.648Z,52.30
2019-06-26T20:59:46.342Z,52.10
2019-06-26T21:02:15.070Z,52.10
2019-06-26T21:04:43.761Z,52.20
2019-06-26T21:07:12.428Z,52.60
2019-06-26T21:09:41.153Z,52.50
2019-06-26T21:12:09.824Z,52.20
2019-06-26T21:14:38.574Z,52.10
2019-06-26T21:17:07.246Z,52.30
2019-06-26T21:19:36.320Z,52.20
2019-06-26T21:22:08.663Z,52.60
2019-06-26T21:24:35.382Z,52.50
2019-06-26T21:27:04.068Z,52.30
2019-06-26T21:29:32.788Z,52.50
2019-06-26T21:32:01.479Z,52.60
2019-06-26T21:34:30.273Z,52.20
2019-06-26T21:36:59.009Z,52.00
2019-06-26T21:39:27.689Z,52.40
2019-06-26T21:41:56.399Z,52.10
2019-06-26T21:44:25.085Z,52.60
2019-06-26T21:46:53.844Z,52.70
2019-06-26T21:49:22.542Z,52.80
2019-06-26T21:51:51.202Z,52.40
2019-06-26T21:54:19.920Z,52.90
2019-06-26T21:56:48.594Z,53.40
2019-06-26T21:59:17.337Z,53.10
2019-06-26T22:01:46.928Z,53.40
2019-06-26T22:04:15.902Z,53.50
2019-06-26T22:06:44.746Z,54.00
2019-06-26T22:09:13.433Z,54.40
2019-06-26T22:11:42.120Z,54.60
2019-06-26T22:14:10.838Z,55.10
2019-06-26T22:16:39.522Z,55.50
2019-06-26T22:19:08.286Z,55.50
2019-06-26T22:21:36.974Z,55.70
2019-06-26T22:24:05.655Z,56.60
2019-06-26T22:26:34.386Z,56.00
2019-06-26T22:29:03.086Z,56.10
2019-06-26T22:31:31.832Z,56.30
2019-06-26T22:34:00.512Z,56.60
2019-06-26T22:36:32.068Z,56.80
2019-06-26T22:39:00.542Z,56.80
2019-06-26T22:41:29.227Z,57.10
2019-06-26T22:43:57.916Z,57.20
2019-06-26T22:46:26.630Z,57.50
2019-06-26T22:48:55.315Z,57.70
2019-06-26T22:51:24.079Z,57.90
2019-06-26T22:53:52.775Z,58.00
2019-06-26T22:56:21.463Z,58.00
2019-06-26T22:58:50.182Z,58.10
2019-06-26T23:01:18.878Z,58.10
2019-06-26T23:03:47.624Z,57.80
2019-06-26T23:06:16.313Z,58.00
2019-06-26T23:08:45.003Z,58.10
2019-06-26T23:11:13.715Z,58.30
2019-06-26T23:13:42.400Z,58.10
2019-06-26T23:16:11.167Z,58.10
2019-06-26T23:18:39.855Z,58.20
2019-06-26T23:21:08.548Z,58.40
2019-06-26T23:23:37.294Z,58.60
2019-06-26T23:26:05.982Z,58.60
2019-06-26T23:28:34.666Z,58.60
2019-06-26T23:31:03.390Z,58.70
2019-06-26T23:33:32.070Z,58.70
2019-06-26T23:36:00.819Z,59.00
2019-06-26T23:38:29.502Z,59.10
2019-06-26T23:40:58.203Z,59.10
2019-06-26T23:43:26.922Z,59.30
2019-06-26T23:45:55.614Z,59.40
2019-06-26T23:48:24.392Z,59.60
2019-06-26T23:50:53.070Z,59.80
2019-06-26T23:53:21.757Z,59.90
2019-06-26T23:55:50.498Z,60.00
2019-06-26T23:58:19.168Z,59.80
